createdAt,value
2023-10-20T00:02:19.090Z,16.91
2023-10-20T00:05:21.503Z,16.91
2023-10-20T00:08:24.685Z,16.95
2023-10-20T00:11:27.343Z,16.95
2023-10-20T00:14:29.777Z,17.02
2023-10-20T00:17:32.299Z,17.12
2023-10-20T00:20:34.909Z,17.13
2023-10-20T00:23:37.343Z,17.10
2023-10-20T00:26:40.750Z,17.10
2023-10-20T00:29:43.235Z,17.09
2023-10-20T00:32:46.829Z,17.09
2023-10-20T00:35:50.027Z,17.08
2023-10-20T00:38:52.427Z,17.09
2023-10-20T00:41:54.838Z,17.11
2023-10-20T00:44:57.266Z,17.11
2023-10-20T00:48:00.557Z,17.03
2023-10-20T00:51:03.326Z,17.09
2023-10-20T00:54:06.409Z,17.13
2023-10-20T00:57:08.967Z,17.18
2023-10-20T01:00:12.157Z,17.21
2023-10-20T01:03:14.720Z,17.21
2023-10-20T01:06:17.217Z,17.22
2023-10-20T01:09:28.867Z,17.15
2023-10-20T01:12:32.381Z,17.12
2023-10-20T01:15:34.862Z,17.08
2023-10-20T01:18:37.293Z,17.08
2023-10-20T01:21:39.681Z,17.02
2023-10-20T01:24:42.051Z,16.95
2023-10-20T01:27:44.474Z,16.89
2023-10-20T01:30:46.877Z,16.87
2023-10-20T01:33:49.492Z,16.80
2023-10-20T01:36:53.313Z,16.73
2023-10-20T01:39:56.303Z,16.68
2023-10-20T01:42:58.723Z,16.71
2023-10-20T01:46:04.858Z,16.68
2023-10-20T01:49:07.236Z,16.68
2023-10-20T01:52:09.779Z,16.70
2023-10-20T01:55:12.282Z,16.74
2023-10-20T01:58:15.280Z,16.74
2023-10-20T02:01:20.221Z,16.77
2023-10-20T02:04:22.706Z,16.80
2023-10-20T02:07:25.052Z,16.83
2023-10-20T02:10:27.540Z,16.90
2023-10-20T02:13:29.944Z,16.95
2023-10-20T02:16:32.676Z,16.95
2023-10-20T02:19:35.113Z,16.95
2023-10-20T02:22:37.511Z,16.94
2023-10-20T02:25:39.903Z,16.89
2023-10-20T02:28:42.273Z,16.99
2023-10-20T02:31:44.658Z,17.04
2023-10-20T02:34:47.168Z,17.02
2023-10-20T02:37:49.658Z,17.05
2023-10-20T02:40:52.932Z,17.16
2023-10-20T02:43:55.576Z,17.28
2023-10-20T02:46:57.998Z,17.38
2023-10-20T02:50:00.423Z,17.47
2023-10-20T02:53:03.417Z,17.48
2023-10-20T02:56:17.049Z,17.49
2023-10-20T02:59:19.515Z,17.49
2023-10-20T03:02:22.063Z,17.51
2023-10-20T03:05:24.514Z,17.48
2023-10-20T03:08:26.989Z,17.50
2023-10-20T03:11:29.486Z,17.51
2023-10-20T03:14:32.927Z,17.55
2023-10-20T03:17:35.734Z,17.56
2023-10-20T03:20:38.227Z,17.59
2023-10-20T03:23:44.981Z,17.57
2023-10-20T03:26:47.674Z,17.54
2023-10-20T03:29:50.534Z,17.56
2023-10-20T03:32:52.956Z,17.66
2023-10-20T03:36:04.954Z,17.53
2023-10-20T03:39:21.138Z,17.51
2023-10-20T03:42:23.580Z,17.36
2023-10-20T03:45:26.854Z,17.39
2023-10-20T03:48:30.767Z,17.46
2023-10-20T03:51:36.418Z,17.39
2023-10-20T03:54:40.049Z,17.36
2023-10-20T03:57:45.978Z,17.43
2023-10-20T04:00:53.642Z,17.59
2023-10-20T04:03:57.158Z,17.57
2023-10-20T04:06:59.637Z,17.58
2023-10-20T04:10:02.577Z,17.75
2023-10-20T04:13:05.706Z,17.56
2023-10-20T04:16:14.997Z,17.79
2023-10-20T04:19:17.502Z,17.84
2023-10-20T04:22:19.895Z,17.79
2023-10-20T04:25:23.498Z,17.75
2023-10-20T04:28:44.073Z,18.01
2023-10-20T04:32:04.978Z,18.37
2023-10-20T04:35:26.049Z,18.24
2023-10-20T04:38:47.277Z,18.02
2023-10-20T04:41:57.495Z,17.78
2023-10-20T04:45:18.093Z,17.68
2023-10-20T04:48:52.635Z,17.48
2023-10-20T04:51:55.010Z,17.37
2023-10-20T04:55:16.060Z,17.34
2023-10-20T04:58:25.535Z,17.23
2023-10-20T05:01:31.418Z,17.14
2023-10-20T05:04:44.015Z,17.13
2023-10-20T05:07:51.317Z,17.08
2023-10-20T05:10:55.339Z,17.15
2023-10-20T05:13:57.937Z,17.06
2023-10-20T05:17:00.298Z,17.09
2023-10-20T05:20:02.720Z,17.16
2023-10-20T05:23:06.873Z,17.13
2023-10-20T05:26:12.413Z,17.00
2023-10-20T05:29:15.640Z,17.07
2023-10-20T05:32:18.587Z,17.09
2023-10-20T05:35:21.898Z,17.20
2023-10-20T05:38:24.573Z,17.14
2023-10-20T05:41:28.571Z,17.09
2023-10-20T05:44:34.708Z,17.01
2023-10-20T05:47:40.382Z,17.10
2023-10-20T05:50:42.945Z,17.19
2023-10-20T05:53:45.424Z,17.35
2023-10-20T05:56:47.944Z,17.38
2023-10-20T05:59:51.090Z,17.52
2023-10-20T06:02:54.289Z,17.47
2023-10-20T06:06:01.705Z,17.44
2023-10-20T06:09:07.433Z,17.41
2023-10-20T06:12:11.576Z,17.39
2023-10-20T06:15:14.002Z,17.51
2023-10-20T06:18:29.187Z,17.42
2023-10-20T06:21:37.646Z,17.47
2023-10-20T06:24:39.998Z,17.45
2023-10-20T06:27:43.754Z,17.49
2023-10-20T06:30:47.438Z,17.46
2023-10-20T06:33:55.570Z,17.53
2023-10-20T06:37:21.319Z,17.62
2023-10-20T06:40:23.737Z,17.75
2023-10-20T06:43:26.486Z,17.77
2023-10-20T06:46:29.487Z,17.79
2023-10-20T06:49:33.661Z,17.94
2023-10-20T06:52:36.643Z,17.98
2023-10-20T06:55:59.380Z,17.96
2023-10-20T06:59:05.425Z,18.01
2023-10-20T07:02:07.808Z,18.06
2023-10-20T07:05:10.207Z,18.18
2023-10-20T07:08:14.842Z,18.21
2023-10-20T07:11:17.518Z,18.27
2023-10-20T07:14:20.005Z,18.30
2023-10-20T07:17:22.450Z,18.42
2023-10-20T07:20:26.106Z,18.55
2023-10-20T07:23:28.555Z,18.64
2023-10-20T07:26:31.324Z,18.68
2023-10-20T07:29:37.463Z,18.59
2023-10-20T07:32:41.849Z,18.60
2023-10-20T07:35:44.408Z,18.69
2023-10-20T07:38:46.934Z,18.76
2023-10-20T07:41:49.431Z,18.98
2023-10-20T07:44:51.825Z,18.94
2023-10-20T07:47:54.377Z,19.00
2023-10-20T07:50:59.452Z,19.09
2023-10-20T07:54:01.916Z,19.13
2023-10-20T07:57:05.095Z,19.22
2023-10-20T08:00:14.515Z,19.29
2023-10-20T08:03:17.177Z,19.32
2023-10-20T08:06:24.152Z,19.43
2023-10-20T08:09:28.690Z,19.55
2023-10-20T08:12:31.092Z,19.64
2023-10-20T08:15:37.768Z,19.78
2023-10-20T08:18:40.230Z,19.82
2023-10-20T08:21:43.682Z,19.82
2023-10-20T08:24:46.697Z,19.92
2023-10-20T08:27:52.111Z,20.16
2023-10-20T08:31:10.869Z,20.26
2023-10-20T08:34:14.686Z,20.24
2023-10-20T08:37:18.282Z,20.30
2023-10-20T08:40:20.775Z,20.39
2023-10-20T08:43:23.442Z,20.52
2023-10-20T08:46:26.086Z,20.66
2023-10-20T08:49:29.061Z,20.89
2023-10-20T08:52:31.758Z,21.03
2023-10-20T08:55:34.232Z,21.25
2023-10-20T08:58:36.904Z,21.46
2023-10-20T09:01:39.820Z,21.67
2023-10-20T09:04:42.331Z,21.83
2023-10-20T09:07:52.286Z,22.22
2023-10-20T09:10:55.369Z,22.48
2023-10-20T09:13:58.262Z,22.76
2023-10-20T09:17:04.159Z,22.97
2023-10-20T09:20:13.107Z,23.23
2023-10-20T09:23:15.633Z,23.38
2023-10-20T09:26:18.087Z,23.55
2023-10-20T09:29:20.504Z,23.70
2023-10-20T09:32:23.072Z,23.95
2023-10-20T09:35:27.217Z,24.19
2023-10-20T09:38:29.781Z,24.18
2023-10-20T09:41:32.313Z,24.14
2023-10-20T09:44:50.479Z,24.09
2023-10-20T09:47:53.553Z,24.20
2023-10-20T09:50:56.344Z,24.46
2023-10-20T09:53:58.828Z,24.59
2023-10-20T09:57:01.769Z,24.57
2023-10-20T10:00:10.621Z,24.52
2023-10-20T10:03:14.132Z,24.67
2023-10-20T10:06:20.747Z,24.85
2023-10-20T10:09:23.303Z,24.65
2023-10-20T10:12:29.617Z,24.64
2023-10-20T10:15:41.963Z,24.50
2023-10-20T10:18:47.559Z,24.35
2023-10-20T10:21:51.733Z,24.30
2023-10-20T10:24:57.992Z,24.24
2023-10-20T10:28:11.400Z,24.21
2023-10-20T10:31:13.894Z,24.19
2023-10-20T10:34:16.433Z,24.16
2023-10-20T10:37:34.876Z,24.28
2023-10-20T10:40:46.644Z,24.42
2023-10-20T10:43:54.288Z,24.62
2023-10-20T10:46:56.781Z,24.52
2023-10-20T10:49:59.235Z,24.45
2023-10-20T10:53:02.218Z,24.59
2023-10-20T10:56:05.058Z,24.90
2023-10-20T10:59:08.352Z,25.09
2023-10-20T11:02:11.016Z,25.26
2023-10-20T11:05:14.025Z,25.14
2023-10-20T11:08:18.759Z,25.42
2023-10-20T11:11:21.277Z,25.49
2023-10-20T11:14:24.892Z,25.45
2023-10-20T11:17:29.089Z,25.51
2023-10-20T11:20:37.662Z,25.35
2023-10-20T11:23:40.241Z,25.66
2023-10-20T11:26:42.683Z,25.49
2023-10-20T11:29:58.454Z,25.57
2023-10-20T11:33:02.050Z,25.47
2023-10-20T11:36:05.772Z,25.54
2023-10-20T11:39:08.146Z,25.56
2023-10-20T11:42:13.086Z,25.50
2023-10-20T11:45:16.084Z,25.51
2023-10-20T11:48:18.770Z,25.48
2023-10-20T11:51:21.192Z,25.47
2023-10-20T11:54:23.693Z,25.46
2023-10-20T11:57:26.106Z,25.41
2023-10-20T12:00:28.468Z,25.34
2023-10-20T12:03:31.156Z,25.24
2023-10-20T12:06:37.427Z,25.27
2023-10-20T12:09:39.781Z,25.31
2023-10-20T12:12:42.158Z,25.25
2023-10-20T12:15:44.606Z,25.31
2023-10-20T12:18:47.755Z,25.20
2023-10-20T12:21:50.115Z,25.24
2023-10-20T12:24:52.504Z,25.25
2023-10-20T12:27:54.881Z,25.37
2023-10-20T12:30:57.337Z,25.32
2023-10-20T12:33:59.815Z,25.35
2023-10-20T12:37:02.404Z,25.40
2023-10-20T12:40:05.251Z,25.36
2023-10-20T12:43:12.996Z,25.37
2023-10-20T12:46:17.136Z,25.43
2023-10-20T12:49:20.187Z,25.44
2023-10-20T12:52:23.012Z,25.51
2023-10-20T12:55:27.365Z,25.54
2023-10-20T12:58:29.726Z,25.85
2023-10-20T13:01:32.171Z,26.13
2023-10-20T13:04:35.594Z,26.49
2023-10-20T13:07:38.920Z,26.87
2023-10-20T13:10:44.892Z,27.21
2023-10-20T13:13:47.432Z,27.49
2023-10-20T13:16:49.870Z,27.66
2023-10-20T13:19:52.394Z,27.81
2023-10-20T13:22:54.794Z,27.81
2023-10-20T13:26:05.771Z,28.06
2023-10-20T13:29:08.240Z,28.00
2023-10-20T13:32:10.661Z,28.15
2023-10-20T13:35:13.147Z,27.76
2023-10-20T13:38:18.886Z,27.39
2023-10-20T13:41:34.849Z,27.14
2023-10-20T13:44:37.685Z,27.00
2023-10-20T13:47:40.241Z,26.88
2023-10-20T13:50:42.754Z,26.83
2023-10-20T13:53:45.194Z,26.75
2023-10-20T13:56:48.149Z,26.78
2023-10-20T13:59:50.699Z,26.99
2023-10-20T14:02:53.185Z,26.95
2023-10-20T14:05:56.354Z,26.75
2023-10-20T14:08:59.085Z,26.60
2023-10-20T14:12:01.506Z,26.48
2023-10-20T14:15:04.804Z,26.37
2023-10-20T14:18:07.568Z,26.28
2023-10-20T14:21:10.039Z,26.21
2023-10-20T14:24:12.440Z,26.11
2023-10-20T14:27:14.913Z,25.98
2023-10-20T14:30:17.309Z,25.92
2023-10-20T14:33:19.760Z,25.76
2023-10-20T14:36:22.260Z,25.73
2023-10-20T14:39:25.770Z,25.71
2023-10-20T14:42:28.133Z,25.65
2023-10-20T14:45:30.557Z,25.62
2023-10-20T14:48:33.601Z,25.58
2023-10-20T14:51:36.107Z,25.60
2023-10-20T14:54:38.553Z,25.52
2023-10-20T14:57:41.493Z,25.50
2023-10-20T15:00:50.234Z,25.41
2023-10-20T15:03:52.766Z,25.39
2023-10-20T15:06:55.328Z,25.32
2023-10-20T15:09:58.640Z,25.30
2023-10-20T15:13:02.090Z,25.34
2023-10-20T15:16:06.356Z,25.32
2023-10-20T15:19:08.883Z,25.29
2023-10-20T15:22:11.387Z,25.23
2023-10-20T15:25:13.737Z,25.25
2023-10-20T15:28:16.312Z,25.25
2023-10-20T15:31:18.718Z,25.19
2023-10-20T15:34:21.158Z,25.15
2023-10-20T15:37:26.144Z,25.10
2023-10-20T15:40:28.879Z,25.05
2023-10-20T15:43:31.458Z,25.00
2023-10-20T15:46:33.896Z,25.03
2023-10-20T15:49:36.452Z,24.95
2023-10-20T15:52:39.905Z,24.89
2023-10-20T15:55:43.075Z,24.86
2023-10-20T15:58:45.504Z,24.84
2023-10-20T16:01:47.928Z,24.88
2023-10-20T16:04:53.258Z,24.85
2023-10-20T16:07:55.617Z,24.77
2023-10-20T16:10:58.046Z,24.81
2023-10-20T16:14:01.638Z,24.80
2023-10-20T16:17:04.064Z,24.72
2023-10-20T16:20:06.817Z,24.68
2023-10-20T16:23:09.220Z,24.64
2023-10-20T16:26:12.404Z,24.62
2023-10-20T16:29:14.881Z,24.50
2023-10-20T16:32:17.291Z,24.49
2023-10-20T16:35:19.674Z,24.49
2023-10-20T16:38:22.142Z,24.50
2023-10-20T16:41:24.602Z,24.46
2023-10-20T16:44:28.471Z,24.45
2023-10-20T16:47:31.069Z,24.34
2023-10-20T16:50:33.541Z,24.36
2023-10-20T16:53:36.598Z,24.33
2023-10-20T16:56:39.528Z,24.31
2023-10-20T16:59:42.033Z,24.21
2023-10-20T17:02:45.551Z,24.25
2023-10-20T17:05:48.109Z,24.17
2023-10-20T17:08:51.200Z,24.16
2023-10-20T17:11:53.642Z,24.17
2023-10-20T17:14:56.081Z,24.16
2023-10-20T17:17:58.617Z,24.13
2023-10-20T17:21:04.878Z,24.13
2023-10-20T17:24:09.515Z,24.18
2023-10-20T17:27:11.990Z,24.24
2023-10-20T17:30:14.550Z,24.21
2023-10-20T17:33:17.911Z,24.11
2023-10-20T17:36:20.409Z,24.09
2023-10-20T17:39:22.848Z,24.13
2023-10-20T17:42:25.408Z,24.20
2023-10-20T17:45:28.146Z,24.30
2023-10-20T17:48:30.819Z,24.33
2023-10-20T17:51:33.642Z,24.34
2023-10-20T17:54:36.068Z,24.35
2023-10-20T17:57:38.462Z,24.32
2023-10-20T18:00:42.225Z,24.25
2023-10-20T18:03:44.983Z,24.22
2023-10-20T18:06:47.492Z,24.18
2023-10-20T18:09:49.968Z,24.17
2023-10-20T18:12:52.356Z,24.19
2023-10-20T18:15:54.770Z,24.20
2023-10-20T18:18:57.222Z,24.17
2023-10-20T18:21:59.594Z,24.20
2023-10-20T18:25:02.012Z,24.17
2023-10-20T18:28:04.652Z,24.18
2023-10-20T18:31:14.451Z,24.04
2023-10-20T18:34:16.925Z,24.14
2023-10-20T18:37:19.720Z,24.18
2023-10-20T18:40:22.099Z,24.26
2023-10-20T18:43:24.561Z,24.25
2023-10-20T18:46:27.460Z,24.25
2023-10-20T18:49:29.882Z,24.27
2023-10-20T18:52:32.371Z,24.25
2023-10-20T18:55:34.987Z,24.33
2023-10-20T18:58:37.971Z,24.35
2023-10-20T19:01:40.527Z,24.39
2023-10-20T19:04:42.939Z,24.44
2023-10-20T19:07:45.627Z,24.49
2023-10-20T19:10:48.052Z,24.43
2023-10-20T19:13:50.422Z,24.40
2023-10-20T19:16:54.039Z,24.29
2023-10-20T19:19:56.453Z,24.42
2023-10-20T19:23:00.788Z,24.38
2023-10-20T19:26:11.505Z,24.31
2023-10-20T19:29:14.187Z,24.27
2023-10-20T19:32:16.751Z,24.21
2023-10-20T19:35:19.154Z,24.12
2023-10-20T19:38:21.605Z,24.11
2023-10-20T19:41:24.010Z,24.09
2023-10-20T19:44:26.414Z,23.98
2023-10-20T19:47:28.950Z,24.01
2023-10-20T19:50:31.364Z,23.94
2023-10-20T19:53:33.849Z,23.95
2023-10-20T19:56:36.409Z,23.90
2023-10-20T19:59:38.976Z,23.88
2023-10-20T20:02:42.303Z,23.78
2023-10-20T20:05:44.899Z,23.61
2023-10-20T20:08:47.360Z,23.38
2023-10-20T20:11:49.797Z,23.24
2023-10-20T20:14:52.286Z,23.07
2023-10-20T20:17:56.196Z,23.09
2023-10-20T20:20:59.171Z,23.03
2023-10-20T20:24:01.624Z,22.95
2023-10-20T20:27:04.297Z,22.94
2023-10-20T20:30:07.399Z,22.90
2023-10-20T20:33:10.063Z,22.84
2023-10-20T20:36:12.538Z,23.10
2023-10-20T20:39:14.999Z,23.10
2023-10-20T20:42:18.125Z,23.16
2023-10-20T20:45:20.514Z,23.22
2023-10-20T20:48:23.050Z,23.27
2023-10-20T20:51:25.508Z,23.23
2023-10-20T20:54:27.878Z,23.21
2023-10-20T20:57:30.290Z,23.20
2023-10-20T21:00:32.654Z,23.27
2023-10-20T21:03:35.163Z,23.18
2023-10-20T21:06:37.683Z,23.21
2023-10-20T21:09:40.110Z,23.02
2023-10-20T21:12:42.487Z,23.08
2023-10-20T21:15:44.903Z,23.04
2023-10-20T21:18:47.329Z,23.11
2023-10-20T21:21:49.795Z,23.16
2023-10-20T21:24:55.605Z,23.16
2023-10-20T21:27:57.992Z,23.23
2023-10-20T21:31:03.829Z,23.15
2023-10-20T21:34:06.245Z,23.22
2023-10-20T21:37:08.608Z,23.22
2023-10-20T21:40:11.493Z,23.19
2023-10-20T21:43:14.450Z,23.19
2023-10-20T21:46:16.864Z,23.12
2023-10-20T21:49:19.319Z,23.19
2023-10-20T21:52:21.758Z,23.14
2023-10-20T21:55:24.362Z,23.05
2023-10-20T21:58:26.733Z,22.94
2023-10-20T22:01:29.148Z,22.98
2023-10-20T22:04:31.520Z,22.86
2023-10-20T22:07:33.926Z,22.94
2023-10-20T22:10:36.302Z,22.80
2023-10-20T22:13:38.654Z,22.71
2023-10-20T22:16:41.154Z,22.67
2023-10-20T22:19:43.651Z,22.52
2023-10-20T22:22:46.045Z,22.73
2023-10-20T22:25:48.492Z,22.56
2023-10-20T22:28:51.119Z,22.67
2023-10-20T22:31:53.738Z,22.82
2023-10-20T22:34:56.139Z,23.16
2023-10-20T22:37:58.570Z,23.18
2023-10-20T22:41:00.983Z,23.23
2023-10-20T22:44:03.595Z,23.31
2023-10-20T22:47:06.128Z,23.36
2023-10-20T22:50:09.173Z,23.45
2023-10-20T22:53:11.758Z,23.31
2023-10-20T22:56:14.192Z,23.33
2023-10-20T22:59:16.624Z,23.33
2023-10-20T23:02:19.033Z,23.27
2023-10-20T23:05:23.221Z,23.29
2023-10-20T23:08:26.797Z,23.49
2023-10-20T23:11:29.218Z,23.37
2023-10-20T23:14:31.929Z,23.49
2023-10-20T23:17:34.423Z,23.44
2023-10-20T23:20:36.924Z,23.57
2023-10-20T23:23:39.316Z,23.53
2023-10-20T23:26:42.048Z,23.48
2023-10-20T23:29:44.539Z,23.54
2023-10-20T23:32:47.146Z,23.50
2023-10-20T23:35:49.862Z,23.59
2023-10-20T23:38:52.330Z,23.58
2023-10-20T23:41:54.875Z,23.48
2023-10-20T23:44:57.427Z,23.41
2023-10-20T23:47:59.980Z,23.44
2023-10-20T23:51:02.433Z,23.55
2023-10-20T23:54:05.039Z,23.50
2023-10-20T23:57:07.488Z,23.46
